Time;durP1;ratioP1;P1;durP2;ratioP2;P2;SDS_P1;SDS_P2;PMS_P1;PMS_P2;Temp;Humidity;BMP_temperature;BMP_pressure;BME280_temperature;BME280_humidity;BME280_pressure;Samples;Min_cycle;Max_cycle;Signal;HPM_P1;HPM_P2
2023/11/18 00:00:33;;;;;;;13.07;9.35;;;3.20;99.90;;;;;;5109689;28;20055;-81
2023/11/18 00:03:24;;;;;;;14.20;9.32;;;3.20;99.90;;;;;;5095013;28;20044;-81
2023/11/18 00:06:15;;;;;;;12.55;8.68;;;3.10;99.90;;;;;;5099303;28;20119;-81
2023/11/18 00:09:02;;;;;;;12.63;9.77;;;3.10;99.90;;;;;;5085145;28;20047;-81
2023/11/18 00:11:50;;;;;;;12.25;8.48;;;3.10;99.90;;;;;;5091329;28;20051;-81
2023/11/18 00:14:38;;;;;;;13.10;8.95;;;3.10;99.90;;;;;;5079138;28;20468;-80
2023/11/18 00:17:27;;;;;;;11.25;8.27;;;3.20;99.90;;;;;;5095099;28;20044;-81
2023/11/18 00:20:16;;;;;;;13.23;8.70;;;3.20;99.90;;;;;;5076272;28;20064;-81
2023/11/18 00:23:06;;;;;;;11.20;8.23;;;3.20;99.90;;;;;;5091269;28;20055;-81
2023/11/18 00:25:58;;;;;;;11.80;8.98;;;3.20;99.90;;;;;;5072518;28;20040;-81
2023/11/18 00:28:49;;;;;;;11.02;8.90;;;3.20;99.90;;;;;;5077428;28;20032;-80
2023/11/18 00:31:39;;;;;;;11.48;8.18;;;3.30;99.90;;;;;;5091148;28;20119;-80
2023/11/18 00:34:28;;;;;;;10.90;8.07;;;3.30;99.90;;;;;;5083171;28;20448;-81
2023/11/18 00:37:18;;;;;;;11.40;8.18;;;3.30;99.90;;;;;;5084567;28;20127;-80
2023/11/18 00:40:11;;;;;;;13.35;8.77;;;3.30;99.90;;;;;;5077088;28;20043;-79
2023/11/18 00:42:59;;;;;;;12.90;8.25;;;3.40;99.90;;;;;;5079593;28;20044;-81
2023/11/18 00:45:48;;;;;;;14.95;8.20;;;3.40;99.90;;;;;;5097006;28;20048;-80
2023/11/18 00:48:36;;;;;;;13.63;8.38;;;3.50;99.90;;;;;;5098667;28;20606;-80
2023/11/18 00:51:25;;;;;;;9.85;8.00;;;3.50;99.90;;;;;;5093259;28;20044;-81
2023/11/18 00:54:22;;;;;;;12.10;8.45;;;3.50;99.90;;;;;;5092650;28;20044;-81
2023/11/18 00:57:09;;;;;;;10.65;7.93;;;3.50;99.90;;;;;;5091428;28;20460;-81
2023/11/18 00:59:58;;;;;;;12.18;7.68;;;3.50;99.90;;;;;;5091606;28;20048;-81
2023/11/18 01:02:47;;;;;;;12.32;7.93;;;3.50;99.90;;;;;;5093705;28;20145;-81
2023/11/18 01:05:38;;;;;;;9.20;7.70;;;3.50;99.90;;;;;;5095925;28;20130;-81
2023/11/18 01:08:33;;;;;;;9.05;7.13;;;3.50;99.90;;;;;;5105583;28;20126;-81
2023/11/18 01:11:23;;;;;;;8.93;6.53;;;3.50;99.90;;;;;;5099281;28;20048;-81
2023/11/18 01:14:13;;;;;;;10.32;7.25;;;3.50;99.90;;;;;;5084745;28;20044;-81
2023/11/18 01:17:01;;;;;;;9.80;7.03;;;3.50;99.90;;;;;;5086980;28;20059;-82
2023/11/18 01:19:48;;;;;;;9.88;7.57;;;3.60;99.90;;;;;;5075989;28;20042;-80
2023/11/18 01:22:37;;;;;;;9.05;7.30;;;3.60;99.90;;;;;;5090534;28;20048;-81
2023/11/18 01:25:25;;;;;;;10.63;7.78;;;3.60;99.90;;;;;;5101132;27;20044;-81
2023/11/18 01:28:15;;;;;;;10.65;7.50;;;3.60;99.90;;;;;;5090693;28;20051;-81
2023/11/18 01:31:07;;;;;;;8.80;7.50;;;3.60;99.90;;;;;;5095651;28;20054;-81
2023/11/18 01:33:59;;;;;;;9.02;7.43;;;3.60;99.90;;;;;;5091976;28;20036;-81
2023/11/18 01:36:49;;;;;;;11.02;8.05;;;3.60;99.90;;;;;;5080641;28;20173;-80
2023/11/18 01:39:39;;;;;;;10.02;8.30;;;3.70;99.90;;;;;;5090495;28;20048;-80
2023/11/18 01:42:31;;;;;;;9.27;7.60;;;3.70;99.90;;;;;;5103551;28;20048;-83
2023/11/18 01:45:18;;;;;;;12.52;7.72;;;3.70;99.90;;;;;;5102329;28;20357;-82
2023/11/18 01:48:06;;;;;;;10.45;7.85;;;3.70;99.90;;;;;;5071427;28;20040;-82
2023/11/18 01:51:01;;;;;;;10.40;8.23;;;3.70;99.90;;;;;;5086685;28;20109;-83
2023/11/18 01:53:50;;;;;;;11.85;8.40;;;3.70;99.90;;;;;;5087957;28;20044;-83
2023/11/18 01:56:37;;;;;;;11.52;8.25;;;3.70;99.90;;;;;;5094192;28;20070;-83
2023/11/18 01:59:25;;;;;;;12.10;8.20;;;3.70;99.90;;;;;;5089519;28;20059;-83
2023/11/18 02:02:13;;;;;;;11.80;9.50;;;3.60;99.90;;;;;;5089923;28;20460;-83
2023/11/18 02:05:05;;;;;;;11.98;8.38;;;3.60;99.90;;;;;;5091864;28;20144;-83
2023/11/18 02:07:53;;;;;;;12.32;9.23;;;3.60;99.90;;;;;;5089141;28;20059;-83
2023/11/18 02:10:53;;;;;;;13.63;8.85;;;3.60;99.90;;;;;;5089264;28;20145;-83
2023/11/18 02:13:46;;;;;;;10.95;8.75;;;3.60;99.90;;;;;;5108486;27;20066;-84
2023/11/18 02:16:35;;;;;;;11.80;8.90;;;3.60;99.90;;;;;;5094200;28;20058;-83
2023/11/18 02:19:25;;;;;;;11.35;9.00;;;3.60;99.90;;;;;;5089599;28;20036;-83
2023/11/18 02:22:13;;;;;;;11.85;9.13;;;3.70;99.90;;;;;;5067017;28;20046;-81
2023/11/18 02:25:06;;;;;;;13.70;8.75;;;3.60;99.90;;;;;;5088076;28;20133;-82
2023/11/18 02:27:54;;;;;;;14.00;8.95;;;3.60;99.90;;;;;;5085932;28;20479;-83
2023/11/18 02:30:43;;;;;;;14.18;9.18;;;3.60;99.90;;;;;;5083230;28;20134;-83
2023/11/18 02:33:40;;;;;;;13.50;8.95;;;3.50;99.90;;;;;;5082152;28;20044;-82
2023/11/18 02:36:36;;;;;;;12.80;9.30;;;3.50;99.90;;;;;;5074961;28;20471;-83
2023/11/18 02:39:36;;;;;;;12.88;8.40;;;3.50;99.90;;;;;;5083605;28;20472;-82
2023/11/18 02:42:26;;;;;;;12.60;8.95;;;3.40;99.90;;;;;;5083250;28;20036;-81
2023/11/18 02:45:17;;;;;;;12.75;8.85;;;3.40;99.90;;;;;;5089336;28;20476;-80
2023/11/18 02:48:08;;;;;;;10.10;7.47;;;3.30;99.90;;;;;;5089409;28;20128;-81
2023/11/18 02:50:55;;;;;;;12.18;8.32;;;3.20;99.90;;;;;;5088955;28;20090;-82
2023/11/18 02:53:44;;;;;;;10.38;7.82;;;3.20;99.90;;;;;;5096220;28;20048;-81
2023/11/18 02:56:33;;;;;;;12.45;8.20;;;3.10;99.90;;;;;;5087849;28;20047;-82
2023/11/18 02:59:20;;;;;;;13.57;8.50;;;3.00;99.90;;;;;;5098065;28;20048;-82
2023/11/18 03:02:07;;;;;;;12.00;8.57;;;3.00;99.90;;;;;;5094818;28;20139;-82
2023/11/18 03:04:57;;;;;;;11.77;8.25;;;2.90;99.90;;;;;;5089599;28;20466;-79
2023/11/18 03:07:49;;;;;;;13.45;9.35;;;2.90;99.90;;;;;;5093493;28;20181;-82
2023/11/18 03:10:37;;;;;;;;;;;2.80;99.90;;;;;;5090546;28;20032;-82
2023/11/18 03:13:27;;;;;;;23.15;8.35;;;2.80;99.90;;;;;;5088815;28;19927;-81
2023/11/18 03:16:17;;;;;;;14.15;9.23;;;2.80;99.90;;;;;;5083171;28;20669;-82
2023/11/18 03:19:05;;;;;;;11.98;9.15;;;2.80;99.90;;;;;;5086130;28;20460;-82
2023/11/18 03:21:53;;;;;;;13.20;9.18;;;2.80;99.90;;;;;;5089506;28;20046;-82
2023/11/18 03:24:40;;;;;;;14.85;9.95;;;2.90;99.90;;;;;;5075237;28;20052;-80
2023/11/18 03:27:29;;;;;;;15.73;10.55;;;2.90;99.90;;;;;;5089526;28;20063;-82
2023/11/18 03:30:16;;;;;;;14.45;9.00;;;3.00;99.90;;;;;;5076044;28;20391;-82
2023/11/18 03:33:10;;;;;;;15.88;10.52;;;3.00;99.90;;;;;;5090700;28;20059;-82
2023/11/18 03:35:58;;;;;;;19.02;10.73;;;3.00;99.90;;;;;;5089602;28;20071;-81
2023/11/18 03:38:45;;;;;;;18.48;11.15;;;3.00;99.90;;;;;;5088877;28;20048;-82
2023/11/18 03:41:32;;;;;;;18.23;11.02;;;2.90;99.90;;;;;;5087861;28;20036;-82
2023/11/18 03:44:20;;;;;;;18.88;12.43;;;2.80;99.90;;;;;;5093073;28;20063;-81
2023/11/18 03:47:08;;;;;;;23.75;13.27;;;2.80;99.90;;;;;;5091406;28;20044;-82
2023/11/18 03:49:58;;;;;;;21.75;12.63;;;2.70;99.90;;;;;;5087932;28;20040;-81
2023/11/18 03:52:45;;;;;;;24.25;13.88;;;2.70;99.90;;;;;;5077320;28;20048;-80
2023/11/18 03:55:33;;;;;;;21.67;13.95;;;2.70;99.90;;;;;;5091414;28;20052;-82
2023/11/18 03:58:23;;;;;;;22.13;14.05;;;2.70;99.90;;;;;;5100468;28;20048;-82
2023/11/18 04:01:18;;;;;;;24.92;14.52;;;2.70;99.90;;;;;;5096524;28;20050;-82
2023/11/18 04:04:06;;;;;;;24.25;15.18;;;2.70;99.90;;;;;;5089471;28;20717;-79
2023/11/18 04:06:53;;;;;;;26.77;15.40;;;2.70;99.90;;;;;;5095238;28;20036;-79
2023/11/18 04:09:43;;;;;;;23.75;15.23;;;2.80;99.90;;;;;;5079018;28;20450;-82
2023/11/18 04:12:31;;;;;;;26.75;14.45;;;2.80;99.90;;;;;;5082534;28;20066;-83
2023/11/18 04:15:18;;;;;;;23.85;15.23;;;2.80;99.90;;;;;;5087165;28;20131;-83
2023/11/18 04:18:06;;;;;;;24.08;16.02;;;2.90;99.90;;;;;;5081434;28;20044;-83
2023/11/18 04:20:54;;;;;;;25.92;15.10;;;2.90;99.90;;;;;;5091939;28;20040;-82
2023/11/18 04:23:43;;;;;;;27.67;15.38;;;2.90;99.90;;;;;;5088730;28;20048;-82
2023/11/18 04:26:31;;;;;;;25.77;16.92;;;3.00;99.90;;;;;;5086226;28;20471;-83
2023/11/18 04:29:19;;;;;;;25.70;15.88;;;3.00;99.90;;;;;;5090502;28;20047;-82
2023/11/18 04:32:10;;;;;;;28.88;18.70;;;3.10;99.90;;;;;;5087415;28;20055;-83
2023/11/18 04:34:57;;;;;;;28.15;17.10;;;3.20;99.90;;;;;;5090369;28;20040;-81
2023/11/18 04:37:45;;;;;;;27.75;17.80;;;3.20;99.90;;;;;;5085849;28;20050;-83
2023/11/18 04:40:34;;;;;;;28.70;18.20;;;3.30;99.90;;;;;;5091422;28;20383;-83
2023/11/18 04:43:23;;;;;;;30.38;18.13;;;3.20;99.90;;;;;;5091810;28;20043;-80
2023/11/18 04:46:25;;;;;;;28.65;17.95;;;3.20;99.90;;;;;;5089622;28;20063;-82
2023/11/18 04:49:13;;;;;;;28.42;18.45;;;3.20;99.90;;;;;;5094722;28;20488;-82
2023/11/18 04:52:00;;;;;;;30.98;17.52;;;3.20;99.90;;;;;;5090666;28;20395;-84
2023/11/18 04:54:50;;;;;;;28.48;17.52;;;3.20;99.90;;;;;;5091747;28;20431;-82
2023/11/18 04:57:39;;;;;;;35.88;16.70;;;3.10;99.90;;;;;;5092961;28;20040;-81
2023/11/18 05:00:27;;;;;;;27.77;17.10;;;3.10;99.90;;;;;;5092595;28;20045;-83
2023/11/18 05:03:16;;;;;;;27.42;16.85;;;3.10;99.90;;;;;;5082029;28;20165;-80
2023/11/18 05:06:08;;;;;;;26.15;16.33;;;3.10;99.90;;;;;;5102001;28;20043;-83
2023/11/18 05:08:58;;;;;;;27.35;17.48;;;3.20;99.90;;;;;;5077910;28;20036;-83
2023/11/18 05:11:46;;;;;;;26.55;17.10;;;3.20;99.90;;;;;;5098437;28;20416;-80
2023/11/18 05:14:33;;;;;;;26.55;16.58;;;3.20;99.90;;;;;;5090015;28;20450;-83
2023/11/18 05:17:25;;;;;;;27.48;16.05;;;3.20;99.90;;;;;;5090296;28;20036;-83
2023/11/18 05:20:13;;;;;;;34.42;16.55;;;3.20;99.90;;;;;;5091164;28;20043;-84
2023/11/18 05:23:00;;;;;;;26.42;15.63;;;3.20;99.90;;;;;;5082574;28;20075;-80
2023/11/18 05:25:50;;;;;;;29.90;16.90;;;3.10;99.90;;;;;;5079337;28;20088;-84
2023/11/18 05:28:40;;;;;;;24.20;15.48;;;3.10;99.90;;;;;;5095128;28;20075;-83
2023/11/18 05:31:28;;;;;;;25.15;16.02;;;3.20;99.90;;;;;;5076673;28;20127;-83
2023/11/18 05:34:16;;;;;;;25.88;17.02;;;3.20;99.90;;;;;;5097080;28;20047;-83
2023/11/18 05:37:03;;;;;;;26.20;17.08;;;3.20;99.90;;;;;;5082711;28;20430;-81
2023/11/18 05:39:58;;;;;;;27.33;17.05;;;3.20;99.90;;;;;;5083392;28;20044;-82
2023/11/18 05:42:51;;;;;;;27.80;17.52;;;3.10;99.90;;;;;;5091488;28;20044;-83
2023/11/18 05:45:56;;;;;;;;;;;3.20;99.90;;;;;;5075252;28;20177;-82
2023/11/18 05:48:44;;;;;;;28.77;18.45;;;3.20;99.90;;;;;;5080064;28;19924;-82
2023/11/18 05:51:31;;;;;;;32.40;19.58;;;3.20;99.90;;;;;;5088978;28;20043;-80
2023/11/18 05:54:18;;;;;;;32.10;19.98;;;3.20;99.90;;;;;;5091206;28;20055;-82
2023/11/18 05:57:06;;;;;;;39.40;20.73;;;3.20;99.90;;;;;;5081864;28;20363;-82
2023/11/18 05:59:56;;;;;;;31.15;18.52;;;3.20;99.90;;;;;;5090703;28;20119;-83
2023/11/18 06:02:45;;;;;;;31.65;20.20;;;3.20;99.90;;;;;;5071692;28;20055;-82
2023/11/18 06:05:35;;;;;;;34.35;20.50;;;3.20;99.90;;;;;;5089633;28;20189;-80
2023/11/18 06:08:26;;;;;;;36.90;21.48;;;3.10;99.90;;;;;;5098263;28;20471;-82
2023/11/18 06:11:14;;;;;;;38.70;21.60;;;3.10;99.90;;;;;;5097286;28;20667;-81
2023/11/18 06:14:02;;;;;;;33.17;20.70;;;3.00;99.90;;;;;;5091184;28;20545;-83
2023/11/18 06:16:50;;;;;;;33.70;20.00;;;2.90;99.90;;;;;;5075506;28;20167;-82
2023/11/18 06:19:38;;;;;;;36.47;20.98;;;2.80;99.90;;;;;;5088586;28;20119;-81
2023/11/18 06:22:25;;;;;;;33.33;20.02;;;2.80;99.90;;;;;;5086623;28;20115;-83
2023/11/18 06:25:16;;;;;;;31.38;18.90;;;2.80;99.90;;;;;;5074023;28;20048;-83
2023/11/18 06:28:03;;;;;;;41.97;23.05;;;2.80;99.90;;;;;;5087329;28;20589;-82
2023/11/18 06:30:53;;;;;;;34.72;19.83;;;2.70;99.90;;;;;;5091686;28;20062;-82
2023/11/18 06:33:45;;;;;;;34.35;20.10;;;2.70;99.90;;;;;;5082093;28;20048;-80
2023/11/18 06:36:33;;;;;;;32.28;20.23;;;2.70;99.90;;;;;;5091448;28;20036;-82
2023/11/18 06:39:25;;;;;;;39.58;20.85;;;2.60;99.90;;;;;;5093291;28;20266;-83
2023/11/18 06:42:13;;;;;;;34.67;20.55;;;2.60;99.90;;;;;;5085619;28;20047;-80
2023/11/18 06:45:01;;;;;;;39.60;21.92;;;2.60;99.90;;;;;;5087229;28;20060;-82
2023/11/18 06:47:49;;;;;;;34.33;22.40;;;2.60;99.90;;;;;;5085073;28;20490;-82
2023/11/18 06:50:37;;;;;;;36.10;21.90;;;2.60;99.90;;;;;;5084036;28;20464;-82
2023/11/18 06:53:27;;;;;;;37.28;21.95;;;2.60;99.90;;;;;;5082707;28;20050;-81
2023/11/18 06:56:17;;;;;;;38.10;23.15;;;2.60;99.90;;;;;;5083790;28;20068;-83
2023/11/18 06:59:12;;;;;;;37.95;22.42;;;2.60;99.90;;;;;;5066329;28;20420;-82
2023/11/18 07:02:00;;;;;;;42.95;23.55;;;2.70;99.90;;;;;;5087756;28;20406;-81
2023/11/18 07:04:50;;;;;;;41.20;21.65;;;2.70;99.90;;;;;;5084922;28;20182;-82
2023/11/18 07:07:37;;;;;;;39.75;22.35;;;2.70;99.90;;;;;;5095592;28;20114;-82
2023/11/18 07:10:27;;;;;;;38.72;21.55;;;2.80;99.90;;;;;;5092814;28;20136;-82
2023/11/18 07:13:16;;;;;;;36.55;21.95;;;2.90;99.90;;;;;;5091779;28;20363;-80
2023/11/18 07:16:09;;;;;;;36.75;22.25;;;3.00;99.90;;;;;;5089052;28;20079;-81
2023/11/18 07:18:56;;;;;;;39.83;21.42;;;3.00;99.90;;;;;;5090784;28;20051;-82
2023/11/18 07:21:44;;;;;;;34.42;20.92;;;3.10;99.90;;;;;;5087262;28;20044;-83
2023/11/18 07:24:31;;;;;;;32.65;20.38;;;3.30;99.90;;;;;;5088645;28;20055;-79
2023/11/18 07:27:21;;;;;;;30.60;19.55;;;3.30;99.90;;;;;;5089635;28;20472;-82
2023/11/18 07:30:10;;;;;;;30.77;18.58;;;3.40;99.90;;;;;;5086766;28;20126;-81
2023/11/18 07:33:00;;;;;;;29.08;17.23;;;3.50;99.90;;;;;;5076061;28;20040;-81
2023/11/18 07:35:48;;;;;;;27.33;17.20;;;3.40;99.90;;;;;;5093264;28;20048;-83
2023/11/18 07:38:37;;;;;;;28.83;17.17;;;3.40;99.90;;;;;;5086491;23;20060;-82
2023/11/18 07:41:24;;;;;;;24.27;15.63;;;3.40;99.90;;;;;;5082848;28;20052;-81
2023/11/18 07:44:12;;;;;;;30.55;18.88;;;3.30;99.90;;;;;;5069873;23;20063;-83
2023/11/18 07:47:00;;;;;;;26.35;16.95;;;3.30;99.90;;;;;;5051956;28;20366;-82
2023/11/18 07:49:48;;;;;;;21.63;13.40;;;3.40;99.90;;;;;;5057090;28;20114;-84
2023/11/18 07:52:36;;;;;;;18.77;12.50;;;3.40;99.90;;;;;;5043411;28;20060;-84
2023/11/18 07:55:23;;;;;;;18.98;11.80;;;3.40;99.90;;;;;;5050327;28;20794;-82
2023/11/18 07:58:11;;;;;;;21.88;13.57;;;3.50;99.90;;;;;;5053052;28;20052;-83
2023/11/18 08:01:00;;;;;;;15.30;10.65;;;3.50;99.90;;;;;;5055371;28;20059;-84
2023/11/18 08:03:47;;;;;;;12.82;9.05;;;3.50;99.90;;;;;;5057425;28;20071;-78
2023/11/18 08:06:39;;;;;;;14.02;8.75;;;3.50;99.90;;;;;;5045689;28;20045;-84
2023/11/18 08:09:27;;;;;;;11.10;8.13;;;3.60;99.90;;;;;;5067101;23;20040;-84
2023/11/18 08:12:14;;;;;;;10.10;7.70;;;3.60;99.90;;;;;;5062664;28;20051;-83
2023/11/18 08:15:02;;;;;;;11.82;7.13;;;3.60;99.90;;;;;;5055944;28;20045;-85
2023/11/18 08:17:51;;;;;;;12.43;6.50;;;3.70;99.90;;;;;;5057315;28;20377;-82
2023/11/18 08:20:43;;;;;;;9.02;6.03;;;3.70;99.90;;;;;;5053441;28;20040;-80
2023/11/18 08:23:31;;;;;;;10.18;5.53;;;3.80;99.90;;;;;;5050909;28;20117;-82
2023/11/18 08:26:19;;;;;;;10.75;5.40;;;3.90;99.90;;;;;;5040880;28;20055;-83
2023/11/18 08:29:09;;;;;;;9.43;5.03;;;3.90;99.90;;;;;;5049984;28;20106;-83
2023/11/18 08:31:56;;;;;;;9.70;5.00;;;4.00;99.90;;;;;;5040508;28;20414;-84
2023/11/18 08:34:44;;;;;;;7.78;4.43;;;4.00;99.90;;;;;;5046221;28;20481;-83
2023/11/18 08:37:32;;;;;;;6.25;4.15;;;4.00;99.90;;;;;;5051585;28;20049;-83
2023/11/18 08:40:21;;;;;;;7.63;4.88;;;4.00;99.90;;;;;;5051148;28;20171;-85
2023/11/18 08:43:09;;;;;;;5.65;4.15;;;4.10;99.90;;;;;;5052189;28;20056;-79
2023/11/18 08:45:57;;;;;;;13.60;6.57;;;4.20;99.90;;;;;;5053355;28;20122;-81
2023/11/18 08:48:44;;;;;;;9.52;3.78;;;4.20;99.90;;;;;;5058547;28;20041;-83
2023/11/18 08:51:33;;;;;;;7.85;4.15;;;4.20;99.90;;;;;;5052377;28;20158;-81
2023/11/18 08:54:22;;;;;;;5.95;3.83;;;4.30;99.90;;;;;;5054924;28;20041;-80
2023/11/18 08:57:25;;;;;;;3.97;3.25;;;4.40;99.90;;;;;;5046304;28;20132;-80
2023/11/18 09:00:46;;;;;;;5.95;4.15;;;4.50;99.90;;;;;;5044601;28;20171;-83
2023/11/18 09:03:24;;;;;;;5.05;3.33;;;4.60;99.90;;;;;;5064176;28;20206;-83
2023/11/18 09:06:17;;;;;;;5.47;3.05;;;4.70;99.90;;;;;;5050836;28;20182;-81
2023/11/18 09:09:11;;;;;;;3.85;3.25;;;4.80;99.90;;;;;;5049905;28;20048;-84
2023/11/18 09:11:58;;;;;;;;;;;4.90;99.90;;;;;;5049223;28;20118;-82
2023/11/18 09:14:47;;;;;;;7.85;4.65;;;5.10;99.90;;;;;;5050117;28;20011;-83
2023/11/18 09:17:34;;;;;;;9.88;4.65;;;5.20;99.90;;;;;;5045038;28;20160;-82
2023/11/18 09:20:22;;;;;;;12.77;3.30;;;5.30;99.90;;;;;;5048924;28;20113;-84
2023/11/18 09:23:09;;;;;;;4.30;2.92;;;5.20;99.90;;;;;;5054483;28;20438;-83
2023/11/18 09:25:57;;;;;;;6.90;3.70;;;5.20;99.90;;;;;;5057837;28;20456;-83
2023/11/18 09:28:45;;;;;;;4.68;2.50;;;5.30;99.90;;;;;;5050346;28;20128;-84
2023/11/18 09:31:37;;;;;;;4.38;2.70;;;5.30;99.90;;;;;;5051414;28;20060;-83
2023/11/18 09:34:27;;;;;;;8.57;2.67;;;5.30;84.30;;;;;;5051000;28;20179;-83
2023/11/18 09:37:15;;;;;;;3.92;2.28;;;5.50;1.00;;;;;;5054275;28;20065;-83
2023/11/18 09:40:11;;;;;;;3.83;2.47;;;5.50;1.00;;;;;;5045002;28;20042;-82
2023/11/18 09:43:09;;;;;;;5.60;2.63;;;5.60;99.90;;;;;;5046387;28;20040;-82
2023/11/18 09:46:12;;;;;;;57.63;9.48;;;5.70;99.90;;;;;;5048311;28;20503;-80
2023/11/18 09:49:40;;;;;;;40.15;6.85;;;6.00;1.00;;;;;;5050437;28;20122;-81
2023/11/18 09:52:31;;;;;;;12.82;3.15;;;6.60;99.90;;;;;;5038128;28;20168;-82
2023/11/18 09:55:31;;;;;;;19.85;3.42;;;6.80;99.90;;;;;;5027131;28;20185;-82
2023/11/18 09:58:23;;;;;;;22.05;3.38;;;6.80;1.00;;;;;;5060734;28;20049;-78
2023/11/18 10:01:13;;;;;;;10.50;3.13;;;6.80;99.90;;;;;;5044741;28;20045;-81
2023/11/18 10:04:06;;;;;;;4.75;2.15;;;6.80;1.00;;;;;;5067900;28;20040;-80
2023/11/18 10:06:59;;;;;;;12.27;2.90;;;6.90;99.90;;;;;;5053154;28;20366;-82
2023/11/18 10:09:56;;;;;;;16.50;2.78;;;7.30;1.00;;;;;;5052584;28;20052;-81
2023/11/18 10:12:45;;;;;;;22.15;3.90;;;7.50;99.90;;;;;;5048002;28;20056;-82
2023/11/18 10:15:34;;;;;;;6.05;3.15;;;7.40;51.90;;;;;;5056683;28;20041;-83
2023/11/18 10:18:25;;;;;;;6.20;2.58;;;7.40;99.90;;;;;;5057120;28;20186;-82
2023/11/18 10:21:17;;;;;;;3.25;1.77;;;7.20;99.90;;;;;;5049322;28;20151;-84
2023/11/18 10:24:14;;;;;;;2.25;1.38;;;7.00;99.90;;;;;;5044101;28;20102;-81
2023/11/18 10:27:05;;;;;;;3.80;1.55;;;6.80;99.90;;;;;;5051502;28;20453;-81
2023/11/18 10:30:04;;;;;;;8.38;2.15;;;6.80;1.00;;;;;;5052004;28;20572;-82
2023/11/18 10:33:05;;;;;;;3.08;1.90;;;7.00;1.00;;;;;;5053971;28;20056;-82
2023/11/18 10:35:55;;;;;;;8.68;2.03;;;7.10;1.00;;;;;;5078087;28;20082;-84
2023/11/18 10:38:49;;;;;;;4.40;2.72;;;7.20;99.90;;;;;;5054868;28;20128;-84
2023/11/18 10:41:43;;;;;;;4.90;1.90;;;7.30;99.90;;;;;;5060686;28;20058;-86
2023/11/18 10:44:33;;;;;;;14.73;3.15;;;7.00;99.90;;;;;;5072423;28;20041;-82
2023/11/18 10:47:20;;;;;;;4.25;2.13;;;6.90;99.90;;;;;;5063306;28;20037;-82
2023/11/18 10:50:11;;;;;;;25.85;3.65;;;7.00;99.90;;;;;;5068303;28;20056;-84
2023/11/18 10:53:03;;;;;;;9.73;1.92;;;6.80;99.90;;;;;;5070698;28;20071;-85
2023/11/18 10:55:51;;;;;;;10.70;2.40;;;6.90;99.90;;;;;;5062043;28;20041;-81
2023/11/18 10:58:42;;;;;;;16.00;2.35;;;7.00;98.30;;;;;;5054723;28;20128;-83
2023/11/18 11:01:34;;;;;;;8.00;2.15;;;7.00;67.20;;;;;;5057858;28;20042;-84
2023/11/18 11:07:05;;;;;;;5.88;1.85;;;7.40;78.50;;;;;;5396396;22;20079;-81
2023/11/18 11:09:56;;;;;;;7.63;2.00;;;7.40;25.20;;;;;;5069524;28;20463;-81
2023/11/18 11:12:53;;;;;;;4.40;1.70;;;7.40;1.00;;;;;;5075452;28;20040;-81
2023/11/18 11:15:49;;;;;;;4.25;1.90;;;7.00;1.00;;;;;;5074049;28;20478;-80
2023/11/18 11:18:54;;;;;;;2.20;1.92;;;6.70;1.00;;;;;;5073077;28;20047;-81
2023/11/18 11:21:54;;;;;;;13.85;2.60;;;6.80;1.00;;;;;;5067507;28;20044;-79
2023/11/18 11:24:53;;;;;;;52.05;6.53;;;6.80;1.00;;;;;;5072397;28;20067;-81
2023/11/18 11:27:51;;;;;;;27.35;3.78;;;6.70;1.00;;;;;;5081614;28;20076;-81
2023/11/18 11:30:44;;;;;;;17.85;4.00;;;6.60;1.00;;;;;;5084115;28;20098;-79
2023/11/18 11:33:51;;;;;;;9.85;2.65;;;6.50;1.00;;;;;;5083934;28;20076;-82
2023/11/18 11:36:46;;;;;;;8.55;2.47;;;6.40;67.50;;;;;;5076679;28;20135;-82
2023/11/18 11:39:36;;;;;;;3.10;2.50;;;6.30;99.90;;;;;;5060941;28;20531;-82
2023/11/18 11:42:24;;;;;;;6.38;2.65;;;6.40;99.90;;;;;;5075783;28;20048;-84
2023/11/18 11:45:19;;;;;;;8.60;2.50;;;6.40;99.90;;;;;;5063681;28;20052;-82
2023/11/18 11:48:16;;;;;;;8.02;2.50;;;6.40;99.90;;;;;;5073858;28;20049;-82
2023/11/18 11:51:13;;;;;;;6.07;2.55;;;6.30;99.90;;;;;;5050539;28;20044;-81
2023/11/18 11:54:18;;;;;;;7.15;2.60;;;6.40;99.90;;;;;;5070191;28;20045;-80
2023/11/18 11:57:06;;;;;;;4.28;2.65;;;6.40;99.90;;;;;;5078424;28;21616;-81
2023/11/18 11:59:56;;;;;;;7.80;3.83;;;6.40;1.00;;;;;;5072023;28;20044;-82
2023/11/18 12:02:51;;;;;;;4.40;2.35;;;6.40;1.00;;;;;;5072677;28;20439;-81
2023/11/18 12:05:43;;;;;;;4.95;3.05;;;6.40;1.00;;;;;;5073142;28;20040;-82
2023/11/18 12:08:36;;;;;;;4.70;3.00;;;6.50;1.00;;;;;;5070657;28;20123;-82
2023/11/18 12:11:39;;;;;;;4.68;3.50;;;6.60;1.00;;;;;;5069023;28;20159;-83
2023/11/18 12:17:20;;;;;;;4.30;2.75;;;6.70;1.00;;;;;;5074466;28;20040;-82
2023/11/18 12:20:47;;;;;;;59.70;7.60;;;6.70;1.00;;;;;;5060590;28;20055;-80
2023/11/18 12:23:36;;;;;;;14.32;3.30;;;6.60;1.00;;;;;;5065582;28;20052;-81
2023/11/18 12:26:43;;;;;;;11.45;2.85;;;6.60;1.00;;;;;;5068317;28;20149;-79
2023/11/18 12:29:34;;;;;;;7.25;2.53;;;6.50;1.00;;;;;;5071161;28;20041;-80
2023/11/18 12:33:05;;;;;;;10.90;5.35;;;6.60;32.30;;;;;;5073005;28;20116;-80
2023/11/18 12:36:10;;;;;;;4.90;2.58;;;6.50;85.20;;;;;;5071006;28;20068;-80
2023/11/18 12:39:31;;;;;;;7.40;2.75;;;6.40;99.90;;;;;;5084513;28;20123;-81
2023/11/18 12:43:00;;;;;;;16.67;3.53;;;6.40;99.90;;;;;;5077867;28;20041;-81
2023/11/18 12:46:19;;;;;;;38.00;6.15;;;6.40;99.90;;;;;;5056371;28;20044;-80
2023/11/18 12:49:15;;;;;;;4.40;2.45;;;6.40;1.00;;;;;;4981551;28;20099;-81
2023/11/18 12:52:08;;;;;;;49.85;6.75;;;6.40;1.00;;;;;;5084601;28;20059;-82
2023/11/18 12:54:58;;;;;;;5.25;2.78;;;6.40;76.20;;;;;;5080052;28;20376;-79
2023/11/18 12:57:51;;;;;;;5.22;2.72;;;6.30;23.40;;;;;;5076759;28;20113;-80
2023/11/18 13:00:43;;;;;;;20.92;4.25;;;6.30;99.90;;;;;;5065377;28;20054;-82
2023/11/18 13:03:34;;;;;;;8.37;2.70;;;6.30;1.00;;;;;;5064748;28;20046;-81
2023/11/18 13:06:28;;;;;;;5.80;3.35;;;6.20;59.30;;;;;;5065616;28;20041;-80
2023/11/18 13:09:26;;;;;;;11.95;2.75;;;6.20;99.90;;;;;;5067655;28;20073;-82
2023/11/18 13:12:15;;;;;;;15.02;2.95;;;6.20;1.00;;;;;;5068010;28;20060;-81
2023/11/18 13:15:03;;;;;;;5.93;3.28;;;6.20;99.90;;;;;;5063948;28;20037;-81
2023/11/18 13:18:06;;;;;;;5.65;3.22;;;6.20;1.00;;;;;;5078279;28;20189;-82
2023/11/18 13:20:58;;;;;;;5.85;3.58;;;6.20;1.00;;;;;;5075829;28;20036;-82
2023/11/18 13:23:50;;;;;;;8.45;3.15;;;6.20;99.90;;;;;;5069717;28;20036;-82
2023/11/18 13:26:38;;;;;;;4.45;2.42;;;6.20;1.00;;;;;;5065200;28;20055;-82
2023/11/18 13:29:27;;;;;;;6.05;3.05;;;6.20;99.90;;;;;;5060857;28;20078;-81
2023/11/18 13:32:18;;;;;;;9.73;3.22;;;6.30;1.00;;;;;;5066927;28;20053;-81
2023/11/18 13:35:07;;;;;;;5.95;3.25;;;6.40;1.00;;;;;;5055389;28;20036;-81
2023/11/18 13:37:55;;;;;;;3.90;2.90;;;6.40;1.00;;;;;;5065216;28;20052;-81
2023/11/18 13:40:47;;;;;;;4.47;2.95;;;6.30;1.00;;;;;;5068183;28;20344;-82
2023/11/18 13:43:44;;;;;;;11.02;3.30;;;6.30;1.00;;;;;;5070175;28;20041;-80
2023/11/18 13:46:44;;;;;;;5.97;3.38;;;6.20;99.90;;;;;;5070714;28;20051;-82
2023/11/18 13:49:34;;;;;;;7.32;3.15;;;6.20;1.00;;;;;;5068843;28;20044;-83
2023/11/18 13:52:22;;;;;;;10.82;3.83;;;6.20;1.00;;;;;;5066068;28;20186;-81
2023/11/18 13:55:16;;;;;;;6.03;3.67;;;6.20;99.90;;;;;;5070110;28;20049;-81
2023/11/18 13:58:06;;;;;;;10.23;3.97;;;6.20;99.90;;;;;;5058404;28;20032;-81
2023/11/18 14:00:53;;;;;;;8.10;3.95;;;6.20;99.90;;;;;;5069270;28;20341;-80
2023/11/18 14:03:43;;;;;;;6.38;3.95;;;6.10;99.90;;;;;;5066630;28;20111;-81
2023/11/18 14:06:31;;;;;;;5.95;3.60;;;6.10;1.00;;;;;;5067597;28;20341;-82
2023/11/18 14:09:21;;;;;;;9.82;3.90;;;6.10;99.90;;;;;;5067951;28;20048;-81
2023/11/18 14:12:09;;;;;;;5.10;3.60;;;6.10;99.90;;;;;;5075932;28;20072;-79
2023/11/18 14:14:56;;;;;;;5.80;3.85;;;6.20;99.90;;;;;;5067375;28;20059;-81
2023/11/18 14:17:45;;;;;;;10.48;4.50;;;6.20;35.30;;;;;;5064471;28;20049;-82
2023/11/18 14:20:35;;;;;;;6.30;3.78;;;6.20;99.90;;;;;;5059710;28;20040;-81
2023/11/18 14:23:23;;;;;;;5.47;3.42;;;6.20;99.90;;;;;;5060965;28;20049;-83
2023/11/18 14:26:10;;;;;;;5.22;3.38;;;6.30;1.00;;;;;;5077140;28;20064;-82
2023/11/18 14:28:58;;;;;;;5.35;3.22;;;6.30;1.00;;;;;;5081235;28;20452;-81
2023/11/18 14:31:49;;;;;;;9.88;3.00;;;6.20;44.20;;;;;;5066144;28;20060;-81
2023/11/18 14:34:38;;;;;;;8.13;3.08;;;6.20;1.00;;;;;;5064994;28;20565;-81
2023/11/18 14:37:25;;;;;;;5.18;3.20;;;6.20;99.90;;;;;;5064851;28;20081;-82
2023/11/18 14:40:14;;;;;;;5.55;3.17;;;6.20;99.90;;;;;;5067663;28;20057;-80
2023/11/18 14:43:05;;;;;;;8.93;3.53;;;6.30;99.90;;;;;;5070248;28;20051;-81
2023/11/18 14:45:52;;;;;;;7.60;3.20;;;6.30;6.00;;;;;;5067308;28;20079;-81
2023/11/18 14:48:41;;;;;;;5.28;3.70;;;6.30;99.90;;;;;;5066478;28;20048;-82
2023/11/18 14:51:28;;;;;;;6.75;3.40;;;6.30;99.90;;;;;;5063797;28;20048;-80
2023/11/18 14:54:20;;;;;;;4.28;3.10;;;6.30;99.90;;;;;;5065186;28;20480;-81
2023/11/18 14:57:10;;;;;;;8.90;3.55;;;6.30;1.00;;;;;;5074977;28;20206;-84
2023/11/18 14:59:59;;;;;;;6.20;3.60;;;6.20;1.00;;;;;;5067799;28;20144;-82